Time;durP1;ratioP1;P1;durP2;ratioP2;P2;SDS_P1;SDS_P2;PMS_P1;PMS_P2;Temp;Humidity;BMP_temperature;BMP_pressure;BME280_temperature;BME280_humidity;BME280_pressure;Samples;Min_cycle;Max_cycle;Signal;HPM_P1;HPM_P2
2022/07/17 00:00:50;;;;;;;0.00;0.00;;;13.80;99.90;226.50;231333.00;;;;5069092;28;20193;-73
2022/07/17 00:03:19;;;;;;;0.03;0.03;;;13.70;99.90;226.50;231333.00;;;;5066275;28;20205;-72
2022/07/17 00:05:47;;;;;;;0.00;0.00;;;13.70;99.90;226.50;231333.00;;;;5074475;28;20216;-70
2022/07/17 00:08:15;;;;;;;0.08;0.08;;;13.70;99.90;226.50;231333.00;;;;5075082;28;20208;-71
2022/07/17 00:10:45;;;;;;;0.10;0.10;;;13.70;99.90;226.50;231333.00;;;;5057533;28;20286;-71
2022/07/17 00:13:13;;;;;;;0.00;0.00;;;13.50;99.90;226.50;231333.00;;;;5051623;28;20716;-71
2022/07/17 00:15:42;;;;;;;0.10;0.10;;;13.10;99.90;226.50;231333.00;;;;5068291;28;20204;-70
2022/07/17 00:18:10;;;;;;;0.03;0.03;;;12.90;99.90;226.50;231333.00;;;;5070134;28;20197;-72
2022/07/17 00:20:38;;;;;;;0.10;0.10;;;12.80;99.90;226.50;231333.00;;;;5070058;28;20649;-71
2022/07/17 00:23:06;;;;;;;0.05;0.05;;;12.80;99.90;226.50;231333.00;;;;5066705;28;20197;-72
2022/07/17 00:25:34;;;;;;;0.10;0.10;;;12.90;99.90;226.50;231333.00;;;;5068600;28;20193;-71
2022/07/17 00:28:03;;;;;;;0.00;0.00;;;12.90;99.90;226.50;231333.00;;;;5071207;28;20665;-72
2022/07/17 00:30:32;;;;;;;0.00;0.00;;;13.00;99.90;226.50;231333.00;;;;5070468;28;20217;-71
2022/07/17 00:33:01;;;;;;;0.10;0.10;;;12.90;99.90;226.50;231333.00;;;;5066341;28;20214;-71
2022/07/17 00:35:29;;;;;;;0.03;0.03;;;12.90;99.90;226.50;231333.00;;;;5060723;28;20186;-71
2022/07/17 00:37:57;;;;;;;0.10;0.10;;;13.00;99.90;226.50;231333.00;;;;5069500;28;20367;-71
2022/07/17 00:40:26;;;;;;;0.10;0.10;;;13.00;99.90;226.50;231333.00;;;;5066812;28;20271;-70
2022/07/17 00:42:54;;;;;;;0.10;0.10;;;12.90;99.90;226.50;231333.00;;;;5068453;28;20198;-71
2022/07/17 00:45:24;;;;;;;0.10;0.10;;;12.80;99.90;226.50;231333.00;;;;5065986;28;20198;-72
2022/07/17 00:47:56;;;;;;;0.10;0.10;;;12.80;99.90;226.50;231333.00;;;;5061259;28;20197;-72
2022/07/17 00:50:29;;;;;;;0.10;0.10;;;12.80;99.90;226.50;231333.00;;;;5065406;28;20221;-72
2022/07/17 00:52:58;;;;;;;0.10;0.10;;;13.00;99.90;226.50;231333.00;;;;5070594;28;20221;-72
2022/07/17 00:55:27;;;;;;;0.03;0.03;;;13.30;99.90;226.50;231333.00;;;;5070808;28;20196;-71
2022/07/17 00:58:19;;;;;;;0.10;0.10;;;13.30;99.90;226.50;231333.00;;;;5057855;28;20675;-71
2022/07/17 01:00:50;;;;;;;0.10;0.10;;;13.20;99.90;226.50;231333.00;;;;5061842;28;20196;-71
2022/07/17 01:03:21;;;;;;;0.10;0.10;;;13.00;99.90;226.50;231333.00;;;;5054791;28;20670;-72
2022/07/17 01:05:51;;;;;;;0.00;0.00;;;12.70;99.90;226.50;231333.00;;;;5073644;28;20213;-71
2022/07/17 01:08:19;;;;;;;0.10;0.10;;;12.80;99.90;226.50;231333.00;;;;5056146;28;20209;-71
2022/07/17 01:10:48;;;;;;;0.10;0.10;;;12.70;99.90;226.50;231333.00;;;;5059280;28;20194;-72
2022/07/17 01:13:16;;;;;;;0.10;0.10;;;12.60;99.90;226.50;231333.00;;;;5059171;28;20222;-71
2022/07/17 01:15:45;;;;;;;0.10;0.10;;;12.60;99.90;226.50;231333.00;;;;5074212;28;20320;-73
2022/07/17 01:18:15;;;;;;;0.10;0.10;;;12.40;99.90;226.50;231333.00;;;;5070291;28;20201;-71
2022/07/17 01:20:46;;;;;;;0.00;0.00;;;12.40;99.90;226.50;231333.00;;;;5057578;28;20286;-71
2022/07/17 01:23:18;;;;;;;0.00;0.00;;;12.30;99.90;226.50;231333.00;;;;5055802;28;20202;-72
2022/07/17 01:25:46;;;;;;;0.10;0.10;;;12.20;99.90;226.50;231333.00;;;;5064045;28;20193;-71
2022/07/17 01:28:15;;;;;;;0.10;0.10;;;12.30;99.90;226.50;231333.00;;;;5074106;28;20672;-71
2022/07/17 01:30:49;;;;;;;0.00;0.00;;;12.20;99.90;226.50;231333.00;;;;5072005;28;20225;-71
2022/07/17 01:33:19;;;;;;;0.10;0.10;;;12.30;99.90;226.50;231333.00;;;;5064047;28;20223;-71
2022/07/17 01:35:48;;;;;;;0.10;0.10;;;12.30;99.90;226.50;231333.00;;;;5070756;28;20186;-71
2022/07/17 01:38:17;;;;;;;0.10;0.10;;;12.20;99.90;226.50;231333.00;;;;5067877;28;20190;-71
2022/07/17 01:40:45;;;;;;;0.00;0.00;;;12.20;99.90;226.50;231333.00;;;;5061189;28;20270;-71
2022/07/17 01:43:14;;;;;;;0.10;0.10;;;12.20;99.90;226.50;231333.00;;;;5074122;28;20202;-71
2022/07/17 01:45:42;;;;;;;0.10;0.10;;;12.10;99.90;226.50;231333.00;;;;5072443;28;20190;-71
2022/07/17 01:48:10;;;;;;;0.10;0.10;;;12.00;99.90;226.50;231333.00;;;;5070880;28;20523;-72
2022/07/17 01:50:38;;;;;;;0.00;0.00;;;12.00;99.90;226.50;231333.00;;;;5071840;28;20222;-72
2022/07/17 01:53:07;;;;;;;0.10;0.10;;;11.90;99.90;226.50;231333.00;;;;5073327;28;20221;-71
2022/07/17 01:55:36;;;;;;;0.10;0.10;;;12.00;99.90;226.50;231333.00;;;;5073528;28;20194;-72
2022/07/17 01:58:06;;;;;;;0.10;0.10;;;11.90;99.90;226.50;231333.00;;;;5073321;28;20193;-71
2022/07/17 02:00:34;;;;;;;0.10;0.10;;;11.80;99.90;226.50;231333.00;;;;5073732;28;20236;-71
2022/07/17 02:03:03;;;;;;;0.10;0.10;;;11.80;99.90;226.50;231333.00;;;;5073304;28;20193;-71
2022/07/17 02:05:31;;;;;;;0.10;0.10;;;11.70;99.90;226.50;231333.00;;;;5058895;28;20562;-71
2022/07/17 02:07:59;;;;;;;0.10;0.10;;;11.70;99.90;226.50;231333.00;;;;5053577;28;20210;-71
2022/07/17 02:10:27;;;;;;;0.00;0.00;;;11.60;99.90;226.50;231333.00;;;;5061058;28;20217;-71
2022/07/17 02:12:58;;;;;;;0.10;0.10;;;11.70;99.90;226.50;231333.00;;;;5074184;28;20217;-71
2022/07/17 02:15:26;;;;;;;0.10;0.10;;;11.70;99.90;226.50;231333.00;;;;5072941;28;20213;-69
2022/07/17 02:17:54;;;;;;;0.10;0.10;;;11.60;99.90;226.50;231333.00;;;;5073470;28;20603;-70
2022/07/17 02:20:22;;;;;;;0.10;0.10;;;11.50;99.90;226.50;231333.00;;;;5073365;28;20570;-69
2022/07/17 02:22:50;;;;;;;0.10;0.10;;;11.40;99.90;226.50;231333.00;;;;5073284;28;20221;-69
2022/07/17 02:25:18;;;;;;;0.10;0.10;;;11.30;99.90;226.50;231333.00;;;;5073144;28;20194;-71
2022/07/17 02:27:46;;;;;;;0.10;0.10;;;11.20;99.90;226.50;231333.00;;;;5073045;28;20205;-69
2022/07/17 02:30:18;;;;;;;0.10;0.10;;;11.20;99.90;226.50;231333.00;;;;5071765;28;20221;-72
2022/07/17 02:32:47;;;;;;;0.10;0.10;;;11.20;99.90;226.50;231333.00;;;;5072872;28;20225;-69
2022/07/17 02:35:15;;;;;;;0.10;0.10;;;11.30;99.90;226.50;231333.00;;;;5073931;28;20205;-69
2022/07/17 02:37:45;;;;;;;0.10;0.10;;;11.30;99.90;226.50;231333.00;;;;5071687;28;20571;-68
2022/07/17 02:40:13;;;;;;;0.10;0.10;;;11.20;99.90;226.50;231333.00;;;;5074075;28;20228;-69
2022/07/17 02:42:41;;;;;;;0.10;0.10;;;11.20;99.90;226.50;231333.00;;;;5072243;28;20208;-69
2022/07/17 02:45:11;;;;;;;0.10;0.10;;;11.20;99.90;226.50;231333.00;;;;5070168;28;20209;-69
2022/07/17 02:47:41;;;;;;;0.08;0.08;;;11.20;99.90;226.50;231333.00;;;;5066601;28;20194;-69
2022/07/17 02:50:10;;;;;;;0.08;0.08;;;11.20;99.90;226.50;231333.00;;;;5072841;28;20668;-69
2022/07/17 02:52:38;;;;;;;0.10;0.10;;;11.10;99.90;226.50;231333.00;;;;5074185;28;20209;-69
2022/07/17 02:55:08;;;;;;;0.10;0.10;;;11.10;99.90;226.50;231333.00;;;;5072308;28;20217;-70
2022/07/17 02:57:36;;;;;;;0.10;0.10;;;11.10;99.90;226.50;231333.00;;;;5072083;28;20201;-69
2022/07/17 03:00:09;;;;;;;0.10;0.10;;;11.10;99.90;226.50;231333.00;;;;5072498;28;20225;-69
2022/07/17 03:02:38;;;;;;;0.10;0.10;;;10.90;99.90;226.50;231333.00;;;;5071869;28;20572;-69
2022/07/17 03:05:08;;;;;;;0.10;0.10;;;10.80;99.90;226.50;231333.00;;;;5072005;28;20558;-69
2022/07/17 03:07:37;;;;;;;0.10;0.10;;;10.90;99.90;226.50;231333.00;;;;5070249;28;20201;-69
2022/07/17 03:10:07;;;;;;;0.10;0.10;;;10.90;99.90;226.50;231333.00;;;;5071964;28;20223;-72
2022/07/17 03:12:36;;;;;;;0.10;0.10;;;10.90;99.90;226.50;231333.00;;;;5072232;28;20190;-69
2022/07/17 03:15:05;;;;;;;0.10;0.10;;;10.90;99.90;226.50;231333.00;;;;5070642;28;20213;-69
2022/07/17 03:17:34;;;;;;;0.10;0.10;;;10.80;99.90;226.50;231333.00;;;;5071539;28;20202;-70
2022/07/17 03:20:03;;;;;;;0.10;0.10;;;10.80;99.90;226.50;231333.00;;;;5073090;28;20205;-69
2022/07/17 03:22:32;;;;;;;0.10;0.10;;;10.80;99.90;226.50;231333.00;;;;5068889;28;20429;-68
2022/07/17 03:25:00;;;;;;;0.10;0.10;;;10.80;99.90;226.50;231333.00;;;;5056900;28;20198;-69
2022/07/17 03:27:28;;;;;;;0.10;0.10;;;10.80;99.90;226.50;231333.00;;;;5069966;28;20208;-70
2022/07/17 03:29:56;;;;;;;0.10;0.10;;;10.70;99.90;226.50;231333.00;;;;5071656;28;20319;-69
2022/07/17 03:32:24;;;;;;;0.10;0.10;;;10.80;99.90;226.50;231333.00;;;;5067609;28;20190;-69
2022/07/17 03:34:52;;;;;;;0.10;0.10;;;10.90;99.90;226.50;231333.00;;;;5071560;28;20217;-70
2022/07/17 03:37:20;;;;;;;0.10;0.10;;;10.90;99.90;226.50;231333.00;;;;5071220;28;20196;-69
2022/07/17 03:39:49;;;;;;;0.10;0.10;;;10.80;99.90;226.50;231333.00;;;;5067468;28;20214;-70
2022/07/17 03:42:17;;;;;;;0.10;0.10;;;10.80;99.90;226.50;231333.00;;;;5069958;28;20200;-69
2022/07/17 03:44:45;;;;;;;0.10;0.10;;;10.80;99.90;226.50;231333.00;;;;5071416;28;20244;-69
2022/07/17 03:47:13;;;;;;;0.10;0.10;;;10.80;99.90;226.50;231333.00;;;;5071391;28;20198;-69
2022/07/17 03:49:41;;;;;;;0.08;0.08;;;10.60;99.90;226.50;231333.00;;;;5070780;28;20217;-68
2022/07/17 03:52:09;;;;;;;0.10;0.10;;;10.40;99.90;226.50;231333.00;;;;5071580;28;20561;-69
2022/07/17 03:54:37;;;;;;;0.10;0.10;;;10.40;99.90;226.50;231333.00;;;;5070888;28;20245;-68
2022/07/17 03:57:07;;;;;;;0.10;0.10;;;10.40;99.90;226.50;231333.00;;;;5071055;28;20194;-71
2022/07/17 03:59:35;;;;;;;0.10;0.10;;;10.30;99.90;226.50;231333.00;;;;5070445;28;20205;-70
2022/07/17 04:02:03;;;;;;;0.10;0.10;;;10.30;99.90;226.50;231333.00;;;;5069100;28;20210;-69
2022/07/17 04:04:31;;;;;;;0.10;0.10;;;10.30;99.90;226.50;231333.00;;;;5070511;28;20212;-69
2022/07/17 04:06:59;;;;;;;0.10;0.10;;;10.40;99.90;226.50;231333.00;;;;5071156;28;20194;-69
2022/07/17 04:09:27;;;;;;;0.10;0.10;;;10.40;99.90;226.50;231333.00;;;;5069142;28;20220;-69
2022/07/17 04:11:55;;;;;;;0.10;0.10;;;10.40;99.90;226.50;231333.00;;;;5070985;28;20690;-70
2022/07/17 04:14:24;;;;;;;0.10;0.10;;;10.40;99.90;226.50;231333.00;;;;5071207;28;20202;-69
2022/07/17 04:16:52;;;;;;;0.10;0.10;;;10.40;99.90;226.50;231333.00;;;;5071252;28;20553;-69
2022/07/17 04:19:20;;;;;;;0.10;0.10;;;10.40;99.90;226.50;231333.00;;;;5070625;28;20256;-69
2022/07/17 04:21:48;;;;;;;0.10;0.10;;;10.40;99.90;226.50;231333.00;;;;5059646;28;20212;-68
2022/07/17 04:24:16;;;;;;;0.10;0.10;;;10.50;99.90;226.50;231333.00;;;;5071224;28;20217;-69
2022/07/17 04:26:44;;;;;;;0.10;0.10;;;10.50;99.90;226.50;231333.00;;;;5068791;28;20197;-68
2022/07/17 04:29:12;;;;;;;0.10;0.10;;;10.50;99.90;226.50;231333.00;;;;5069707;28;20220;-68
2022/07/17 04:31:41;;;;;;;0.10;0.10;;;10.60;99.90;226.50;231333.00;;;;5070542;28;20661;-69
2022/07/17 04:34:09;;;;;;;0.10;0.10;;;10.70;99.90;226.50;231333.00;;;;5072410;28;20520;-68
2022/07/17 04:36:37;;;;;;;0.10;0.10;;;10.70;99.90;226.50;231333.00;;;;5075051;28;20189;-68
2022/07/17 04:39:05;;;;;;;0.10;0.10;;;10.80;99.90;226.50;231333.00;;;;5074557;28;20210;-69
2022/07/17 04:41:33;;;;;;;0.05;0.05;;;10.60;99.90;226.50;231333.00;;;;5073785;28;20194;-68
2022/07/17 04:44:01;;;;;;;0.10;0.10;;;10.70;99.90;226.50;231333.00;;;;5074874;28;20285;-68
2022/07/17 04:46:29;;;;;;;0.10;0.10;;;10.80;99.90;226.50;231333.00;;;;5075457;28;20198;-68
2022/07/17 04:48:59;;;;;;;0.10;0.10;;;10.80;99.90;226.50;231333.00;;;;5075127;28;20210;-69
2022/07/17 04:51:27;;;;;;;0.10;0.10;;;10.80;99.90;226.50;231333.00;;;;5074991;28;20200;-69
2022/07/17 04:53:56;;;;;;;0.10;0.10;;;10.80;99.90;226.50;231333.00;;;;5072750;28;20194;-68
2022/07/17 04:56:24;;;;;;;0.10;0.10;;;10.80;99.90;226.50;231333.00;;;;5070616;28;20201;-68
2022/07/17 04:58:52;;;;;;;0.03;0.03;;;10.80;99.90;226.50;231333.00;;;;5072929;28;20214;-70
2022/07/17 05:01:20;;;;;;;0.10;0.10;;;10.90;99.90;226.50;231333.00;;;;5074344;28;20189;-70
2022/07/17 05:03:49;;;;;;;0.10;0.10;;;10.90;99.90;226.50;231333.00;;;;5074306;28;20186;-71
2022/07/17 05:06:18;;;;;;;0.10;0.10;;;11.00;99.90;226.50;231333.00;;;;5073850;28;20198;-71
2022/07/17 05:08:46;;;;;;;0.10;0.10;;;11.00;99.90;226.50;231333.00;;;;5073378;28;20222;-70
2022/07/17 05:11:14;;;;;;;0.10;0.10;;;11.10;99.90;226.50;231333.00;;;;5074136;28;20239;-70
2022/07/17 05:13:42;;;;;;;0.10;0.10;;;11.20;99.90;226.50;231333.00;;;;5073545;28;20201;-70
2022/07/17 05:16:10;;;;;;;0.10;0.10;;;11.30;99.90;226.50;231333.00;;;;5074627;28;20225;-71
2022/07/17 05:18:38;;;;;;;0.10;0.10;;;11.40;99.90;226.50;231333.00;;;;5073621;28;20201;-70
2022/07/17 05:21:06;;;;;;;0.10;0.10;;;11.50;99.90;226.50;231333.00;;;;5073613;28;20206;-68
2022/07/17 05:23:35;;;;;;;0.00;0.00;;;11.50;99.90;226.50;231333.00;;;;5063801;28;20262;-70
2022/07/17 05:26:03;;;;;;;0.10;0.10;;;11.60;99.90;226.50;231333.00;;;;5073132;28;20201;-69
2022/07/17 05:28:31;;;;;;;0.10;0.10;;;11.70;99.90;226.50;231333.00;;;;5073437;28;20639;-68
2022/07/17 05:31:05;;;;;;;0.10;0.10;;;11.80;99.90;226.50;231333.00;;;;5073553;28;20186;-70
2022/07/17 05:33:34;;;;;;;0.10;0.10;;;11.90;99.90;226.50;231333.00;;;;5073814;28;20687;-71
2022/07/17 05:36:02;;;;;;;0.10;0.10;;;12.00;99.90;226.50;231333.00;;;;5088621;28;20229;-69
2022/07/17 05:38:30;;;;;;;0.10;0.10;;;12.10;99.90;226.50;231333.00;;;;5072649;28;20285;-71
2022/07/17 05:41:00;;;;;;;0.05;0.05;;;12.20;99.90;226.50;231333.00;;;;5073943;28;20194;-69
2022/07/17 05:43:28;;;;;;;0.10;0.10;;;12.30;99.90;226.50;231333.00;;;;5073677;28;20186;-69
2022/07/17 05:45:57;;;;;;;0.00;0.00;;;12.30;99.90;226.50;231333.00;;;;5073084;28;20533;-69
2022/07/17 05:48:25;;;;;;;0.00;0.00;;;12.40;99.90;226.50;231333.00;;;;5067944;28;20201;-69
2022/07/17 05:50:54;;;;;;;0.10;0.10;;;12.50;99.90;226.50;231333.00;;;;5073298;28;20193;-70
2022/07/17 05:53:22;;;;;;;0.10;0.10;;;12.50;99.90;226.50;231333.00;;;;5072950;28;20201;-68
2022/07/17 05:55:50;;;;;;;0.00;0.00;;;12.50;99.90;226.50;231333.00;;;;5073696;28;20576;-69
2022/07/17 05:58:20;;;;;;;0.10;0.10;;;12.60;99.90;226.50;231333.00;;;;5073660;28;20771;-69
2022/07/17 06:00:48;;;;;;;0.10;0.10;;;12.80;99.90;226.50;231333.00;;;;5075591;28;20200;-68
2022/07/17 06:03:17;;;;;;;0.10;0.10;;;12.80;99.90;226.50;231333.00;;;;5073810;28;20547;-69
2022/07/17 06:05:45;;;;;;;0.10;0.10;;;12.90;99.90;226.50;231333.00;;;;5074035;28;20683;-69
2022/07/17 06:08:13;;;;;;;0.10;0.10;;;13.10;99.90;226.50;231333.00;;;;5076201;28;20194;-69
2022/07/17 06:10:42;;;;;;;0.10;0.10;;;13.20;99.90;226.50;231333.00;;;;5078164;28;20751;-69
2022/07/17 06:13:10;;;;;;;0.10;0.10;;;13.30;99.90;226.50;231333.00;;;;5075592;28;20711;-69
2022/07/17 06:15:39;;;;;;;0.00;0.00;;;13.40;99.90;226.50;231333.00;;;;5076509;28;20665;-68
2022/07/17 06:18:09;;;;;;;0.00;0.00;;;13.50;99.90;226.50;231333.00;;;;5075367;28;20197;-69
2022/07/17 06:20:37;;;;;;;0.10;0.10;;;13.60;99.90;226.50;231333.00;;;;5072524;28;20312;-70
2022/07/17 06:23:05;;;;;;;0.10;0.10;;;13.60;99.90;226.50;231333.00;;;;5072733;28;20567;-71
2022/07/17 06:25:33;;;;;;;0.10;0.10;;;13.70;99.90;226.50;231333.00;;;;5072313;28;20205;-71
2022/07/17 06:28:01;;;;;;;0.10;0.10;;;13.80;99.90;226.50;231333.00;;;;5070560;28;20205;-72
2022/07/17 06:30:29;;;;;;;0.05;0.05;;;13.90;99.90;226.50;231333.00;;;;5072108;28;20209;-71
2022/07/17 06:32:58;;;;;;;0.00;0.00;;;14.00;99.90;226.50;231333.00;;;;5072923;28;20205;-70
2022/07/17 06:35:26;;;;;;;0.10;0.10;;;14.10;99.90;226.50;231333.00;;;;5067971;28;20224;-70
2022/07/17 06:37:54;;;;;;;0.00;0.00;;;14.20;99.90;226.50;231333.00;;;;5071181;28;20190;-70
2022/07/17 06:40:22;;;;;;;0.00;0.00;;;14.30;99.90;226.50;231333.00;;;;5071667;28;20229;-71
2022/07/17 06:42:50;;;;;;;0.00;0.00;;;14.40;99.90;226.50;231333.00;;;;5072941;28;20559;-70
2022/07/17 06:45:31;;;;;;;0.10;0.10;;;14.50;99.90;226.50;231333.00;;;;5071750;28;20196;-72
2022/07/17 06:48:04;;;;;;;0.00;0.00;;;14.70;99.90;226.50;231333.00;;;;5072447;28;20285;-70
2022/07/17 06:50:32;;;;;;;0.00;0.00;;;14.80;99.90;226.50;231333.00;;;;5071324;28;20231;-71
2022/07/17 06:53:00;;;;;;;0.10;0.10;;;14.90;99.90;226.50;231333.00;;;;5073199;28;20312;-71
2022/07/17 06:55:28;;;;;;;0.00;0.00;;;15.10;99.90;226.50;231333.00;;;;5072272;28;20210;-70
2022/07/17 06:57:57;;;;;;;0.10;0.10;;;15.10;99.90;226.50;231333.00;;;;5065226;28;20200;-71
2022/07/17 07:00:25;;;;;;;0.00;0.00;;;15.20;99.90;226.50;231333.00;;;;5072152;28;20241;-71
2022/07/17 07:02:53;;;;;;;0.10;0.10;;;15.30;99.90;226.50;231333.00;;;;5064554;28;20264;-70
2022/07/17 07:05:22;;;;;;;0.10;0.10;;;15.50;99.90;226.50;231333.00;;;;5067984;28;20673;-70
2022/07/17 07:07:50;;;;;;;0.00;0.00;;;15.60;99.90;226.50;231333.00;;;;5071976;28;20196;-71
2022/07/17 07:10:18;;;;;;;0.00;0.00;;;15.80;99.90;226.50;231333.00;;;;5070684;28;20209;-71
2022/07/17 07:12:46;;;;;;;0.00;0.00;;;15.90;99.90;226.50;231333.00;;;;5072506;28;20201;-70
2022/07/17 07:15:15;;;;;;;0.00;0.00;;;16.00;99.90;226.50;231333.00;;;;5071505;28;20669;-70
2022/07/17 07:17:43;;;;;;;0.10;0.10;;;16.20;99.90;226.50;231333.00;;;;5071822;28;20654;-70
2022/07/17 07:20:12;;;;;;;0.10;0.10;;;16.20;99.90;226.50;231333.00;;;;5071026;28;20220;-70
2022/07/17 07:22:41;;;;;;;0.00;0.00;;;16.30;99.90;226.50;231333.00;;;;5071818;28;20197;-69
2022/07/17 07:25:09;;;;;;;0.00;0.00;;;16.40;99.90;226.50;231333.00;;;;5071032;28;20201;-70
2022/07/17 07:27:38;;;;;;;0.00;0.00;;;16.60;99.90;226.50;231333.00;;;;5071827;28;20399;-70
2022/07/17 07:30:09;;;;;;;0.00;0.00;;;16.70;99.90;226.50;231333.00;;;;5071158;28;20206;-71
2022/07/17 07:32:39;;;;;;;0.00;0.00;;;16.80;99.90;226.50;231333.00;;;;5071185;28;20198;-70
2022/07/17 07:35:08;;;;;;;0.00;0.00;;;16.90;99.90;226.50;231333.00;;;;5071600;28;20190;-70
2022/07/17 07:37:37;;;;;;;0.00;0.00;;;17.10;99.90;226.50;231333.00;;;;5070926;28;20213;-71
2022/07/17 07:40:09;;;;;;;0.00;0.00;;;17.30;99.90;226.50;231333.00;;;;5071346;28;20218;-71
2022/07/17 07:42:37;;;;;;;0.00;0.00;;;17.70;99.90;226.50;231333.00;;;;5070730;28;20213;-71
2022/07/17 07:45:07;;;;;;;0.00;0.00;;;18.10;99.90;226.50;231333.00;;;;5071004;28;20193;-71
2022/07/17 07:47:43;;;;;;;0.00;0.00;;;18.40;99.90;226.50;231333.00;;;;5070795;28;20197;-71
2022/07/17 07:50:12;;;;;;;0.00;0.00;;;18.60;99.90;226.50;231333.00;;;;5068236;28;20209;-75
2022/07/17 07:52:41;;;;;;;0.00;0.00;;;18.70;99.90;226.50;231333.00;;;;5070631;28;20891;-71
2022/07/17 07:55:12;;;;;;;0.10;0.10;;;18.90;99.90;226.50;231333.00;;;;5067529;28;20197;-72
2022/07/17 07:57:47;;;;;;;0.00;0.00;;;19.20;99.80;226.50;231333.00;;;;5068610;28;20239;-71
2022/07/17 08:00:16;;;;;;;0.10;0.10;;;19.20;99.60;226.50;231333.00;;;;5070157;28;20206;-71
2022/07/17 08:02:44;;;;;;;0.00;0.00;;;19.50;99.40;226.50;231333.00;;;;5070365;28;20237;-71
2022/07/17 08:05:12;;;;;;;0.00;0.00;;;19.60;98.80;226.50;231333.00;;;;5069990;28;20193;-72
2022/07/17 08:07:40;;;;;;;0.00;0.00;;;19.80;98.70;226.50;231333.00;;;;5070077;28;20204;-71
2022/07/17 08:10:10;;;;;;;0.00;0.00;;;20.00;98.30;226.50;231333.00;;;;5070775;28;20211;-71
2022/07/17 08:12:38;;;;;;;0.00;0.00;;;20.10;97.80;226.50;231333.00;;;;5069382;28;20563;-72
2022/07/17 08:15:15;;;;;;;0.00;0.00;;;20.10;97.70;226.50;231333.00;;;;5064474;28;20189;-71
2022/07/17 08:17:44;;;;;;;0.00;0.00;;;20.20;97.80;226.50;231333.00;;;;5069078;28;20608;-71
2022/07/17 08:20:13;;;;;;;0.00;0.00;;;20.30;97.20;226.50;231333.00;;;;5071851;28;20205;-72
2022/07/17 08:22:43;;;;;;;0.00;0.00;;;20.30;96.80;226.50;231333.00;;;;5069046;28;20211;-71
2022/07/17 08:25:34;;;;;;;0.00;0.00;;;20.40;96.50;226.50;231333.00;;;;5071428;28;20189;-71
2022/07/17 08:28:05;;;;;;;0.00;0.00;;;20.10;97.10;226.50;231333.00;;;;5069356;28;20201;-71
2022/07/17 08:30:36;;;;;;;0.00;0.00;;;20.40;97.50;226.50;231333.00;;;;5062103;28;20256;-71
2022/07/17 08:33:06;;;;;;;0.00;0.00;;;20.70;97.20;226.50;231333.00;;;;5063184;28;20727;-71
2022/07/17 08:35:35;;;;;;;0.00;0.00;;;21.10;96.80;226.50;231333.00;;;;5066716;28;20790;-71
2022/07/17 08:38:05;;;;;;;0.00;0.00;;;21.40;96.30;226.50;231333.00;;;;5066926;28;20213;-70
2022/07/17 08:40:37;;;;;;;0.00;0.00;;;21.70;95.20;226.50;231333.00;;;;5061596;28;20595;-71
2022/07/17 08:43:08;;;;;;;0.00;0.00;;;21.80;95.70;226.50;231333.00;;;;5070789;28;20243;-69
2022/07/17 08:45:39;;;;;;;0.00;0.00;;;22.00;94.80;226.50;231333.00;;;;5070457;28;20272;-72
2022/07/17 08:48:17;;;;;;;0.00;0.00;;;22.20;94.10;226.50;231333.00;;;;5061260;28;20205;-72
2022/07/17 08:50:48;;;;;;;0.00;0.00;;;22.40;94.40;226.50;231333.00;;;;5062509;28;20213;-71
2022/07/17 08:53:16;;;;;;;0.00;0.00;;;22.50;93.90;226.50;231333.00;;;;5054007;28;20202;-70
2022/07/17 08:55:45;;;;;;;0.00;0.00;;;22.50;93.40;226.50;231333.00;;;;5059090;28;20194;-70
2022/07/17 08:58:16;;;;;;;0.00;0.00;;;22.20;93.00;226.50;231333.00;;;;5063739;28;20578;-70
2022/07/17 09:00:44;;;;;;;0.00;0.00;;;22.00;94.00;226.50;231333.00;;;;5072071;28;20662;-70
2022/07/17 09:03:16;;;;;;;0.00;0.00;;;22.30;94.00;226.50;231333.00;;;;5070213;28;20201;-70
2022/07/17 09:05:45;;;;;;;0.00;0.00;;;22.60;93.60;226.50;231333.00;;;;5072968;28;20208;-70
2022/07/17 09:08:25;;;;;;;0.00;0.00;;;22.90;93.00;226.50;231333.00;;;;5073269;28;20194;-70
2022/07/17 09:10:55;;;;;;;0.00;0.00;;;23.10;92.40;226.50;231333.00;;;;5071388;28;20196;-70
2022/07/17 09:13:26;;;;;;;0.00;0.00;;;23.00;92.30;226.50;231333.00;;;;5071054;28;20189;-70
2022/07/17 09:15:59;;;;;;;0.00;0.00;;;23.10;92.50;226.50;231333.00;;;;5069508;28;20225;-73
2022/07/17 09:18:27;;;;;;;0.00;0.00;;;23.20;92.20;226.50;231333.00;;;;5101970;28;20232;-71
2022/07/17 09:20:58;;;;;;;0.00;0.00;;;23.30;91.80;226.50;231333.00;;;;5071211;28;20198;-71
2022/07/17 09:23:27;;;;;;;0.00;0.00;;;23.30;91.80;226.50;231333.00;;;;5069282;28;20193;-70
2022/07/17 09:25:58;;;;;;;0.00;0.00;;;23.40;91.80;226.50;231333.00;;;;5074250;28;20221;-70
2022/07/17 09:28:26;;;;;;;0.00;0.00;;;23.70;91.60;226.50;231333.00;;;;5073382;28;20206;-71
2022/07/17 09:30:56;;;;;;;0.00;0.00;;;23.60;90.70;226.50;231333.00;;;;5074601;28;20735;-70
2022/07/17 09:33:27;;;;;;;0.00;0.00;;;23.70;91.10;226.50;231333.00;;;;5071784;28;20194;-71
2022/07/17 09:36:06;;;;;;;0.00;0.00;;;23.80;90.40;226.50;231333.00;;;;5075925;28;20304;-71
2022/07/17 09:38:37;;;;;;;0.00;0.00;;;23.80;90.80;226.50;231333.00;;;;5075305;28;20236;-70
2022/07/17 09:41:15;;;;;;;0.00;0.00;;;24.10;90.50;226.50;231333.00;;;;5075544;28;20209;-70
2022/07/17 09:43:50;;;;;;;0.00;0.00;;;24.40;90.30;226.50;231333.00;;;;5073751;28;20194;-71
2022/07/17 09:46:21;;;;;;;0.00;0.00;;;24.30;86.90;226.50;231333.00;;;;5074226;28;20247;-70
2022/07/17 09:48:54;;;;;;;0.00;0.00;;;23.90;88.30;226.50;231333.00;;;;5072564;28;20600;-70
2022/07/17 09:51:27;;;;;;;0.00;0.00;;;24.20;88.20;226.50;231333.00;;;;5073715;28;20209;-71
2022/07/17 09:53:59;;;;;;;0.00;0.00;;;24.30;86.30;226.50;231333.00;;;;5073815;28;20672;-71
2022/07/17 09:56:31;;;;;;;0.00;0.00;;;24.60;86.40;226.50;231333.00;;;;5073845;28;20742;-70
2022/07/17 09:59:04;;;;;;;0.00;0.00;;;24.20;83.80;226.50;231333.00;;;;5073825;28;20650;-70
2022/07/17 10:01:32;;;;;;;0.00;0.00;;;24.20;85.30;226.50;231333.00;;;;5073211;28;20198;-70
2022/07/17 10:04:04;;;;;;;0.00;0.00;;;24.50;83.90;226.50;231333.00;;;;5074019;28;20190;-70
2022/07/17 10:06:32;;;;;;;0.00;0.00;;;24.80;82.40;226.50;231333.00;;;;5073852;28;20210;-70
2022/07/17 10:09:02;;;;;;;0.00;0.00;;;25.20;80.60;226.50;231333.00;;;;5073773;28;20217;-70
2022/07/17 10:11:35;;;;;;;0.00;0.00;;;25.60;78.90;226.50;231333.00;;;;5071365;28;20243;-70
2022/07/17 10:14:12;;;;;;;0.00;0.00;;;25.60;77.50;226.50;231333.00;;;;5064027;28;20193;-70
2022/07/17 10:16:41;;;;;;;0.00;0.00;;;25.50;79.30;226.50;231333.00;;;;5071497;28;20198;-71
2022/07/17 10:19:20;;;;;;;0.00;0.00;;;25.50;79.10;226.50;231333.00;;;;5074670;28;20574;-71
2022/07/17 10:21:57;;;;;;;0.00;0.00;;;25.80;77.70;226.50;231333.00;;;;5059026;28;20210;-70
2022/07/17 10:24:26;;;;;;;0.00;0.00;;;25.90;77.20;226.50;231333.00;;;;5061309;28;20644;-71
2022/07/17 10:26:57;;;;;;;0.00;0.00;;;25.30;76.10;226.50;231333.00;;;;5073498;28;20189;-71
2022/07/17 10:29:34;;;;;;;0.00;0.00;;;25.50;77.50;226.50;231333.00;;;;5072842;28;20304;-71
2022/07/17 10:32:09;;;;;;;0.00;0.00;;;25.60;76.50;226.50;231333.00;;;;5067455;28;20212;-71
2022/07/17 10:34:41;;;;;;;0.00;0.00;;;25.50;74.90;226.50;231333.00;;;;5073011;28;20660;-71
2022/07/17 10:37:18;;;;;;;0.00;0.00;;;25.50;74.70;226.50;231333.00;;;;5073239;28;20222;-71
2022/07/17 10:39:59;;;;;;;0.00;0.00;;;25.40;74.20;226.50;231333.00;;;;5071273;28;20347;-72
2022/07/17 10:42:52;;;;;;;0.00;0.00;;;25.30;74.50;226.50;231333.00;;;;5071962;28;20200;-71
2022/07/17 10:45:23;;;;;;;0.00;0.00;;;25.60;74.60;226.50;231333.00;;;;5070832;28;20200;-71
2022/07/17 10:47:56;;;;;;;0.00;0.00;;;25.80;74.80;226.50;231333.00;;;;5067676;28;20229;-71
2022/07/17 10:50:29;;;;;;;0.00;0.00;;;26.00;72.50;226.50;231333.00;;;;5067390;28;20209;-71